createdAt,value
2022-12-10T00:00:40.368Z,18.15
2022-12-10T00:04:47.803Z,16.27
2022-12-10T00:08:51.811Z,13.95
2022-12-10T00:12:53.784Z,13.32
2022-12-10T00:16:55.790Z,17.70
2022-12-10T00:20:57.858Z,13.13
2022-12-10T00:24:59.982Z,10.43
2022-12-10T00:29:04.299Z,9.57
2022-12-10T00:33:06.391Z,12.15
2022-12-10T00:37:08.434Z,10.07
2022-12-10T00:41:11.883Z,9.65
2022-12-10T00:45:13.867Z,10.98
2022-12-10T00:49:15.922Z,9.05
2022-12-10T00:53:17.924Z,9.48
2022-12-10T00:57:19.931Z,9.48
2022-12-10T01:01:26.189Z,8.50
2022-12-10T01:05:28.215Z,9.65
2022-12-10T01:09:31.391Z,8.50
2022-12-10T01:13:33.492Z,8.15
2022-12-10T01:17:35.581Z,8.80
2022-12-10T01:21:38.032Z,9.07
2022-12-10T01:25:40.021Z,9.25
2022-12-10T01:29:42.968Z,8.50
2022-12-10T01:33:46.148Z,7.78
2022-12-10T01:37:48.212Z,8.70
2022-12-10T01:41:51.984Z,7.95
2022-12-10T01:45:54.104Z,9.02
2022-12-10T01:49:58.454Z,8.25
2022-12-10T01:54:01.338Z,7.97
2022-12-10T01:58:03.644Z,7.75
2022-12-10T02:02:30.415Z,8.07
2022-12-10T02:06:43.312Z,8.15
2022-12-10T02:11:20.733Z,8.45
2022-12-10T02:15:31.398Z,8.30
2022-12-10T02:20:02.903Z,7.47
2022-12-10T02:24:12.441Z,8.07
2022-12-10T02:28:38.125Z,7.60
2022-12-10T02:32:45.383Z,8.23
2022-12-10T02:36:53.177Z,8.55
2022-12-10T02:41:02.425Z,8.48
2022-12-10T02:45:06.235Z,8.25
2022-12-10T02:49:12.680Z,9.60
2022-12-10T02:53:14.895Z,8.77
2022-12-10T02:57:36.322Z,7.60
2022-12-10T03:01:56.149Z,8.15
2022-12-10T03:06:31.179Z,8.90
2022-12-10T03:11:06.619Z,8.00
2022-12-10T03:15:11.592Z,8.40
2022-12-10T03:19:19.861Z,8.40
2022-12-10T03:23:22.441Z,8.00
2022-12-10T03:27:25.117Z,8.75
2022-12-10T03:31:27.538Z,8.77
2022-12-10T03:35:30.082Z,8.00
2022-12-10T03:39:33.228Z,8.38
2022-12-10T03:43:35.336Z,8.75
2022-12-10T03:47:37.411Z,8.40
2022-12-10T03:51:39.397Z,8.43
2022-12-10T03:55:41.372Z,8.20
2022-12-10T03:59:43.392Z,8.57
2022-12-10T04:03:45.670Z,9.00
2022-12-10T04:07:48.027Z,9.48
2022-12-10T04:11:50.082Z,9.00
2022-12-10T04:16:10.841Z,8.73
2022-12-10T04:20:31.169Z,7.32
2022-12-10T04:24:54.017Z,7.28
2022-12-10T04:28:56.046Z,7.68
2022-12-10T04:32:58.177Z,7.90
2022-12-10T04:37:01.507Z,7.22
2022-12-10T04:41:03.507Z,7.60
2022-12-10T04:45:06.131Z,7.38
2022-12-10T04:49:08.918Z,7.68
2022-12-10T04:53:10.923Z,7.35
2022-12-10T04:57:12.995Z,7.30
2022-12-10T05:01:15.303Z,7.30
2022-12-10T05:05:17.446Z,7.20
2022-12-10T05:09:19.562Z,7.07
2022-12-10T05:13:21.780Z,7.15
2022-12-10T05:17:23.817Z,7.57
2022-12-10T05:21:46.439Z,7.72
2022-12-10T05:25:54.083Z,7.65
2022-12-10T05:29:56.143Z,7.75
2022-12-10T05:33:59.017Z,8.63
2022-12-10T05:38:01.124Z,8.00
2022-12-10T05:42:03.268Z,7.00
2022-12-10T05:46:07.784Z,7.13
2022-12-10T05:50:10.156Z,6.80
2022-12-10T05:54:12.535Z,7.70
2022-12-10T05:58:15.077Z,7.05
2022-12-10T06:02:17.139Z,7.35
2022-12-10T06:06:30.286Z,10.07
2022-12-10T06:10:35.824Z,8.40
2022-12-10T06:14:37.828Z,8.20
2022-12-10T06:18:40.729Z,8.48
2022-12-10T06:22:42.753Z,7.60
2022-12-10T06:26:44.762Z,7.22
2022-12-10T06:30:46.831Z,7.43
2022-12-10T06:34:48.854Z,7.45
2022-12-10T06:38:51.076Z,7.95
2022-12-10T06:42:53.489Z,7.85
2022-12-10T06:46:55.525Z,7.82
2022-12-10T06:50:57.574Z,8.23
2022-12-10T06:54:59.642Z,8.32
2022-12-10T06:59:05.492Z,8.38
2022-12-10T07:03:07.498Z,8.65
2022-12-10T07:07:09.944Z,8.05
2022-12-10T07:11:14.659Z,8.20
2022-12-10T07:15:16.868Z,7.85
2022-12-10T07:19:19.024Z,8.50
2022-12-10T07:23:21.571Z,8.35
2022-12-10T07:27:23.582Z,8.23
2022-12-10T07:31:26.542Z,8.05
2022-12-10T07:35:28.700Z,8.30
2022-12-10T07:39:30.786Z,8.75
2022-12-10T07:43:37.687Z,8.38
2022-12-10T07:47:42.845Z,8.40
2022-12-10T07:51:49.753Z,7.97
2022-12-10T07:55:51.798Z,8.18
2022-12-10T07:59:53.763Z,8.70
2022-12-10T08:03:59.931Z,8.73
2022-12-10T08:08:06.625Z,8.20
2022-12-10T08:12:09.825Z,8.50
2022-12-10T08:16:20.442Z,7.88
2022-12-10T08:20:23.549Z,8.15
2022-12-10T08:24:25.607Z,7.82
2022-12-10T08:28:27.583Z,8.75
2022-12-10T08:32:29.533Z,9.43
2022-12-10T08:36:31.682Z,8.90
2022-12-10T08:40:33.884Z,10.23
2022-12-10T08:44:36.529Z,10.93
2022-12-10T08:48:39.263Z,14.02
2022-12-10T08:52:41.362Z,20.27
2022-12-10T08:56:43.365Z,13.60
2022-12-10T09:00:45.892Z,10.10
2022-12-10T09:04:50.273Z,12.23
2022-12-10T09:08:52.713Z,10.18
2022-12-10T09:12:59.901Z,10.85
2022-12-10T09:17:05.678Z,10.52
2022-12-10T09:21:17.265Z,11.45
2022-12-10T09:25:22.194Z,10.85
2022-12-10T09:29:24.231Z,10.38
2022-12-10T09:33:27.509Z,9.65
2022-12-10T09:37:29.543Z,10.27
2022-12-10T09:41:44.563Z,10.45
2022-12-10T09:46:28.075Z,10.55
2022-12-10T09:50:47.335Z,10.57
2022-12-10T09:54:59.913Z,10.13
2022-12-10T09:59:17.797Z,10.68
2022-12-10T10:03:19.798Z,11.60
2022-12-10T10:07:25.404Z,10.95
2022-12-10T10:11:33.478Z,12.52
2022-12-10T10:15:39.110Z,14.20
2022-12-10T10:19:42.201Z,12.43
2022-12-10T10:23:45.937Z,13.38
2022-12-10T10:27:48.005Z,11.85
2022-12-10T10:32:14.480Z,12.02
2022-12-10T10:36:16.488Z,11.93
2022-12-10T10:40:40.266Z,14.95
2022-12-10T10:44:42.810Z,12.00
2022-12-10T10:48:45.199Z,12.40
2022-12-10T10:52:47.200Z,13.43
2022-12-10T10:56:49.331Z,13.15
2022-12-10T11:00:59.256Z,15.23
2022-12-10T11:05:07.780Z,13.82
2022-12-10T11:09:20.849Z,9.57
2022-12-10T11:13:28.074Z,9.65
2022-12-10T11:17:30.165Z,10.60
2022-12-10T11:21:34.169Z,9.25
2022-12-10T11:26:04.321Z,8.90
2022-12-10T11:30:12.192Z,8.63
2022-12-10T11:34:45.487Z,8.93
2022-12-10T11:39:29.739Z,7.60
2022-12-10T11:43:39.603Z,8.50
2022-12-10T11:48:05.852Z,8.77
2022-12-10T11:52:27.039Z,8.15
2022-12-10T11:56:35.838Z,9.63
2022-12-10T12:01:02.956Z,8.30
2022-12-10T12:05:35.447Z,7.57
2022-12-10T12:09:54.363Z,7.20
2022-12-10T12:14:13.231Z,7.78
2022-12-10T12:18:28.829Z,8.02
2022-12-10T12:22:37.161Z,7.60
2022-12-10T12:26:47.129Z,9.10
2022-12-10T12:30:58.511Z,7.95
2022-12-10T12:35:02.848Z,7.00
2022-12-10T12:39:35.049Z,7.10
2022-12-10T12:43:37.021Z,8.93
2022-12-10T12:48:01.207Z,7.40
2022-12-10T12:52:21.367Z,7.60
2022-12-10T12:56:53.696Z,8.60
2022-12-10T13:01:01.768Z,7.80
2022-12-10T13:05:04.606Z,10.43
2022-12-10T13:09:12.756Z,11.15
2022-12-10T13:13:25.450Z,11.07
2022-12-10T13:17:36.587Z,14.68
2022-12-10T13:21:56.948Z,13.40
2022-12-10T13:26:00.636Z,14.48
2022-12-10T13:30:27.038Z,10.93
2022-12-10T13:34:37.941Z,17.20
2022-12-10T13:38:56.992Z,10.75
2022-12-10T13:43:56.373Z,10.65
2022-12-10T13:48:10.853Z,9.52
2022-12-10T13:52:26.081Z,7.53
2022-12-10T13:56:36.667Z,7.80
2022-12-10T14:01:16.883Z,6.90
2022-12-10T14:05:41.281Z,6.75
2022-12-10T14:09:50.889Z,7.78
2022-12-10T14:13:58.843Z,6.80
2022-12-10T14:18:02.581Z,6.72
2022-12-10T14:22:07.777Z,6.97
2022-12-10T14:26:16.782Z,6.40
2022-12-10T14:30:27.532Z,7.20
2022-12-10T14:34:30.246Z,6.97
2022-12-10T14:38:35.217Z,6.18
2022-12-10T14:42:40.490Z,7.78
2022-12-10T14:46:43.328Z,8.68
2022-12-10T14:50:46.860Z,8.20
2022-12-10T14:54:49.466Z,6.80
2022-12-10T14:59:02.707Z,6.60
2022-12-10T15:03:11.054Z,7.85
2022-12-10T15:07:21.604Z,7.22
2022-12-10T15:11:26.118Z,7.57
2022-12-10T15:15:40.383Z,9.68
2022-12-10T15:19:42.422Z,7.00
2022-12-10T15:23:46.274Z,8.30
2022-12-10T15:27:58.525Z,8.88
2022-12-10T15:32:06.165Z,10.20
2022-12-10T15:36:18.732Z,7.97
2022-12-10T15:40:28.725Z,8.15
2022-12-10T15:44:30.750Z,8.07
2022-12-10T15:48:32.868Z,7.97
2022-12-10T15:52:35.662Z,7.68
2022-12-10T15:56:37.628Z,7.82
2022-12-10T16:00:44.529Z,8.02
2022-12-10T16:04:46.796Z,7.32
2022-12-10T16:08:48.804Z,7.53
2022-12-10T16:13:01.731Z,9.75
2022-12-10T16:17:03.783Z,7.97
2022-12-10T16:21:07.714Z,9.35
2022-12-10T16:25:09.853Z,9.18
2022-12-10T16:29:11.860Z,8.32
2022-12-10T16:33:14.190Z,8.50
2022-12-10T16:37:16.185Z,7.40
2022-12-10T16:41:22.715Z,8.77
2022-12-10T16:45:28.106Z,10.45
2022-12-10T16:49:30.095Z,9.25
2022-12-10T16:53:36.821Z,8.30
2022-12-10T16:57:41.191Z,7.97
2022-12-10T17:01:43.258Z,9.70
2022-12-10T17:05:46.365Z,13.20
2022-12-10T17:09:48.433Z,15.05
2022-12-10T17:13:51.451Z,9.15
2022-12-10T17:17:53.530Z,9.77
2022-12-10T17:21:55.684Z,8.73
2022-12-10T17:25:58.325Z,8.20
2022-12-10T17:30:00.428Z,12.50
2022-12-10T17:34:02.463Z,10.50
2022-12-10T17:38:04.507Z,13.98
2022-12-10T17:42:08.385Z,13.18
2022-12-10T17:46:12.752Z,13.13
2022-12-10T17:50:36.083Z,17.13
2022-12-10T17:54:38.132Z,11.88
2022-12-10T17:58:40.590Z,11.43
2022-12-10T18:02:42.744Z,12.02
2022-12-10T18:06:45.368Z,8.38
2022-12-10T18:10:47.354Z,9.82
2022-12-10T18:14:49.445Z,9.70
2022-12-10T18:18:51.636Z,11.63
2022-12-10T18:22:54.206Z,14.23
2022-12-10T18:26:57.834Z,10.85
2022-12-10T18:31:02.747Z,13.07
2022-12-10T18:35:05.631Z,13.48
2022-12-10T18:39:18.197Z,13.02
2022-12-10T18:43:20.203Z,12.00
2022-12-10T18:47:22.575Z,11.70
2022-12-10T18:51:25.155Z,12.35
2022-12-10T18:55:27.214Z,11.75
2022-12-10T18:59:29.678Z,11.90
2022-12-10T19:03:31.697Z,12.30
2022-12-10T19:07:34.151Z,13.82
2022-12-10T19:11:36.357Z,12.65
2022-12-10T19:15:42.664Z,12.35
2022-12-10T19:19:45.314Z,11.77
2022-12-10T19:23:47.562Z,12.35
2022-12-10T19:27:49.673Z,11.55
2022-12-10T19:31:52.493Z,12.00
2022-12-10T19:35:54.475Z,13.32
2022-12-10T19:39:56.465Z,9.85
2022-12-10T19:43:58.453Z,12.07
2022-12-10T19:48:00.981Z,13.10
2022-12-10T19:52:03.168Z,11.63
2022-12-10T19:56:32.544Z,11.13
2022-12-10T20:00:34.800Z,12.98
2022-12-10T20:04:36.821Z,11.65
2022-12-10T20:08:38.909Z,13.93
2022-12-10T20:12:40.897Z,12.60
2022-12-10T20:16:43.396Z,12.07
2022-12-10T20:20:45.364Z,12.25
2022-12-10T20:24:47.742Z,11.77
2022-12-10T20:28:50.627Z,12.98
2022-12-10T20:32:52.704Z,12.98
2022-12-10T20:36:54.826Z,12.10
2022-12-10T20:40:57.202Z,15.68
2022-12-10T20:44:59.271Z,12.43
2022-12-10T20:49:01.378Z,13.00
2022-12-10T20:53:03.662Z,12.02
2022-12-10T20:57:05.866Z,11.40
2022-12-10T21:01:08.117Z,12.13
2022-12-10T21:05:10.552Z,11.40
2022-12-10T21:09:13.727Z,12.23
2022-12-10T21:13:15.788Z,12.80
2022-12-10T21:17:17.932Z,14.48
2022-12-10T21:21:21.955Z,12.73
2022-12-10T21:25:24.155Z,14.73
2022-12-10T21:29:26.251Z,11.55
2022-12-10T21:33:28.406Z,12.20
2022-12-10T21:37:30.431Z,12.07
2022-12-10T21:41:50.780Z,11.85
2022-12-10T21:45:55.350Z,12.73
2022-12-10T21:49:57.435Z,12.45
2022-12-10T21:53:59.938Z,12.85
2022-12-10T21:58:03.019Z,11.82
2022-12-10T22:02:05.150Z,12.05
2022-12-10T22:06:08.612Z,11.93
2022-12-10T22:10:12.879Z,11.55
2022-12-10T22:14:14.992Z,11.57
2022-12-10T22:18:17.287Z,12.43
2022-12-10T22:22:19.670Z,13.05
2022-12-10T22:26:22.833Z,12.77
2022-12-10T22:30:25.251Z,12.02
2022-12-10T22:34:27.692Z,11.55
2022-12-10T22:38:29.956Z,11.50
2022-12-10T22:42:38.255Z,11.70
2022-12-10T22:46:40.292Z,12.50
2022-12-10T22:50:42.324Z,10.88
2022-12-10T22:54:44.408Z,11.60
2022-12-10T22:58:46.495Z,12.07
2022-12-10T23:02:50.297Z,11.10
2022-12-10T23:06:52.331Z,11.45
2022-12-10T23:10:54.355Z,11.65
2022-12-10T23:14:59.544Z,11.43
2022-12-10T23:19:01.545Z,11.68
2022-12-10T23:23:03.800Z,11.65
2022-12-10T23:27:05.973Z,11.82
2022-12-10T23:31:08.531Z,11.73
2022-12-10T23:35:11.393Z,11.10
2022-12-10T23:39:13.571Z,11.18
2022-12-10T23:43:15.596Z,12.57
2022-12-10T23:47:18.424Z,12.85
2022-12-10T23:51:20.785Z,12.20
2022-12-10T23:55:22.840Z,12.90
2022-12-10T23:59:24.900Z,13.32
